Time;durP1;ratioP1;P1;durP2;ratioP2;P2;SDS_P1;SDS_P2;PMS_P1;PMS_P2;Temp;Humidity;BMP_temperature;BMP_pressure;BME280_temperature;BME280_humidity;BME280_pressure;Samples;Min_cycle;Max_cycle;Signal;HPM_P1;HPM_P2
2022/08/11 00:01:20;;;;;;;2.72;0.55;;;;;;;23.64;37.54;102067.63;16135879;19;129545;-52
2022/08/11 00:06:44;;;;;;;0.77;0.47;;;;;;;23.62;37.30;102067.03;16134949;19;130492;-54
2022/08/11 00:12:15;;;;;;;1.45;0.38;;;;;;;23.63;37.56;102063.97;16129064;19;129811;-55
2022/08/11 00:17:38;;;;;;;0.85;0.30;;;;;;;23.61;37.61;102070.91;16130878;19;130173;-54
2022/08/11 00:23:05;;;;;;;2.47;0.60;;;;;;;23.63;37.74;102066.75;16133476;19;130481;-55
2022/08/11 00:28:30;;;;;;;0.55;0.40;;;;;;;23.63;37.77;102063.97;16132391;19;129827;-55
2022/08/11 00:33:52;;;;;;;0.32;0.30;;;;;;;23.60;37.47;102067.28;16131735;19;129548;-56
2022/08/11 00:39:16;;;;;;;0.65;0.40;;;;;;;23.61;37.75;102069.00;16133200;19;130467;-54
2022/08/11 00:45:00;;;;;;;1.03;0.30;;;;;;;23.62;37.55;102062.31;16132578;19;129929;-53
2022/08/11 00:50:34;;;;;;;0.68;0.40;;;;;;;23.60;37.50;102069.22;16149828;19;129037;-52
2022/08/11 00:56:14;;;;;;;0.93;0.50;;;;;;;23.60;37.56;102067.28;16170375;19;130154;-53
2022/08/11 01:01:37;;;;;;;2.05;0.50;;;;;;;23.56;37.54;102066.06;16191160;19;129911;-55
2022/08/11 01:07:14;;;;;;;0.47;0.35;;;;;;;23.57;37.20;102070.56;16190313;19;130500;-54
2022/08/11 01:13:21;;;;;;;0.65;0.40;;;;;;;23.58;37.13;102068.59;16185157;19;129922;-54
2022/08/11 01:18:57;;;;;;;0.93;0.50;;;;;;;23.55;37.42;102069.97;16184619;19;130241;-53
2022/08/11 01:24:43;;;;;;;1.73;0.60;;;;;;;23.56;37.38;102071.66;16188716;19;129569;-48
2022/08/11 01:30:17;;;;;;;0.85;0.40;;;;;;;23.55;37.40;102077.50;16143642;19;130259;-49
2022/08/11 01:35:40;;;;;;;1.70;0.60;;;;;;;23.53;37.33;102077.72;16144380;19;129855;-50
2022/08/11 01:41:21;;;;;;;1.60;0.50;;;;;;;23.55;37.19;102075.53;16147913;19;129206;-54
2022/08/11 01:46:56;;;;;;;2.85;0.50;;;;;;;23.54;36.99;102068.25;16146300;19;130134;-50
2022/08/11 01:52:24;;;;;;;2.35;0.70;;;;;;;23.51;37.75;102072.41;16141686;19;129085;-46
2022/08/11 01:58:17;;;;;;;3.22;0.70;;;;;;;23.52;37.33;102073.25;16146838;19;129846;-46
2022/08/11 02:03:53;;;;;;;0.77;0.50;;;;;;;23.52;37.35;102081.63;16147874;19;129340;-49
2022/08/11 02:09:27;;;;;;;0.40;0.30;;;;;;;23.52;37.56;102070.44;16143235;19;129097;-52
2022/08/11 02:15:15;;;;;;;0.63;0.43;;;;;;;23.51;37.09;102079.94;16143774;19;129559;-54
2022/08/11 02:26:39;;;;;;;1.15;0.50;;;;;;;23.49;37.36;102077.41;16141022;19;129385;-51
2022/08/11 02:38:09;;;;;;;0.30;0.30;;;;;;;23.48;37.70;102072.06;16142333;19;129554;-52
2022/08/11 02:43:44;;;;;;;0.55;0.30;;;;;;;23.47;37.17;102067.59;16140801;19;130433;-51
2022/08/11 02:55:34;;;;;;;0.32;0.30;;;;;;;23.47;37.36;102057.25;16135932;19;129523;-54
2022/08/11 03:01:27;;;;;;;1.45;0.68;;;;;;;23.47;37.57;102056.41;16139435;19;129882;-54
2022/08/11 03:07:04;;;;;;;1.35;0.52;;;;;;;23.46;36.97;102068.69;16138683;19;129117;-53
2022/08/11 03:19:07;;;;;;;0.50;0.50;;;;;;;23.45;37.13;102066.97;16135397;19;130046;-51
2022/08/11 03:25:01;;;;;;;0.73;0.65;;;;;;;23.44;37.20;102062.50;16128413;19;129667;-48
2022/08/11 03:30:49;;;;;;;0.40;0.40;;;;;;;23.43;37.34;102067.25;16126495;19;129425;-52
2022/08/11 03:36:13;;;;;;;1.00;0.60;;;;;;;23.43;37.39;102067.25;16128202;19;130658;-52
2022/08/11 03:41:43;;;;;;;1.13;0.60;;;;;;;23.43;37.31;102066.38;16127616;19;130635;-50
2022/08/11 03:47:46;;;;;;;1.48;0.57;;;;;;;23.42;37.35;102057.19;16125093;19;130330;-48
2022/08/11 03:53:40;;;;;;;3.35;0.60;;;;;;;23.42;36.87;102059.09;16122055;19;130264;-51
2022/08/11 03:59:08;;;;;;;0.93;0.68;;;;;;;23.41;37.32;102068.56;16129636;19;130304;-53
2022/08/11 04:04:48;;;;;;;3.45;0.60;;;;;;;23.41;37.29;102063.84;16136202;19;128907;-52
2022/08/11 04:10:56;;;;;;;0.60;0.50;;;;;;;23.39;37.36;102063.25;16135181;19;129433;-52
2022/08/11 04:16:43;;;;;;;1.77;0.43;;;;;;;23.39;37.29;102063.25;16131938;19;130364;-55
2022/08/11 04:22:20;;;;;;;0.93;0.50;;;;;;;23.40;37.12;102066.88;16135337;19;132137;-53
2022/08/11 04:28:19;;;;;;;3.70;0.68;;;;;;;23.39;37.14;102065.19;16134998;19;129433;-52
2022/08/11 04:34:13;;;;;;;1.05;0.50;;;;;;;23.38;37.05;102067.16;16135676;19;129738;-49
2022/08/11 04:39:53;;;;;;;1.17;0.55;;;;;;;23.37;37.24;102071.03;16147021;19;130237;-50
2022/08/11 04:45:48;;;;;;;1.23;0.70;;;;;;;23.37;37.49;102073.00;16148440;19;131249;-51
2022/08/11 05:03:25;;;;;;;0.40;0.40;;;;;;;23.34;37.65;102075.19;16146706;19;129538;-52
2022/08/11 05:09:06;;;;;;;1.25;0.70;;;;;;;23.35;37.10;102064.84;16146259;19;129233;-54
2022/08/11 06:01:26;;;;;;;8.18;3.05;;;;;;;22.97;36.12;102078.38;16142735;19;130780;-48
2022/08/11 06:07:11;;;;;;;9.10;3.60;;;;;;;22.98;36.25;102088.44;16139763;19;128863;-50
2022/08/11 06:12:36;;;;;;;10.25;2.33;;;;;;;23.00;36.21;102083.47;16141358;19;130366;-53
2022/08/11 06:18:00;;;;;;;;;;;;;;;22.99;36.04;102073.41;16138383;19;129670;-51
2022/08/11 06:23:24;;;;;;;7.35;3.05;;;;;;;23.04;36.23;102075.44;16141928;19;129603;-50
2022/08/11 06:28:47;;;;;;;4.10;2.00;;;;;;;23.07;36.12;102082.47;16145169;19;129431;-54
2022/08/11 06:34:25;;;;;;;9.15;2.70;;;;;;;23.13;36.25;102079.53;16136517;19;129166;-54
2022/08/11 06:40:08;;;;;;;7.05;2.28;;;;;;;23.18;36.25;102078.78;16143649;19;129574;-53
2022/08/11 06:45:39;;;;;;;4.35;1.67;;;;;;;23.21;36.26;102086.66;16138233;19;129094;-53
2022/08/11 06:51:11;;;;;;;3.45;2.08;;;;;;;23.24;36.31;102076.94;16140635;19;131238;-48
2022/08/11 07:03:08;;;;;;;2.95;1.60;;;;;;;23.27;36.23;102088.44;16143997;19;130288;-53
2022/08/11 07:31:53;;;;;;;2.33;1.02;;;;;;;23.31;36.50;102078.47;16139925;19;129040;-53
2022/08/11 07:37:19;;;;;;;1.88;1.17;;;;;;;23.32;36.57;102082.97;16142388;19;129314;-54
2022/08/11 07:42:45;;;;;;;2.28;1.20;;;;;;;23.35;36.44;102084.38;16141869;19;129900;-51
2022/08/11 07:53:51;;;;;;;1.58;0.95;;;;;;;23.35;36.62;102093.63;16135850;19;129086;-53
2022/08/11 08:22:29;;;;;;;1.23;0.77;;;;;;;23.40;37.05;102083.63;16138050;19;129588;-54
2022/08/11 08:28:04;;;;;;;1.55;0.85;;;;;;;23.41;36.75;102083.41;16138163;19;129392;-51
2022/08/11 08:33:30;;;;;;;1.80;0.80;;;;;;;23.43;36.74;102086.78;16131354;19;129411;-51
2022/08/11 08:38:55;;;;;;;1.23;0.70;;;;;;;23.44;37.04;102094.06;16136990;19;128919;-50
2022/08/11 08:44:20;;;;;;;2.10;0.80;;;;;;;23.46;36.93;102093.81;16134394;19;129472;-51
2022/08/11 08:50:06;;;;;;;1.58;0.70;;;;;;;23.47;36.82;102085.19;16132035;19;131379;-49
2022/08/11 08:55:30;;;;;;;2.35;0.80;;;;;;;23.46;36.88;102086.28;16129479;19;129108;-50
2022/08/11 09:00:55;;;;;;;0.82;0.57;;;;;;;23.48;37.04;102083.25;16133979;19;129101;-51
2022/08/11 09:06:17;;;;;;;2.55;1.08;;;;;;;23.48;36.82;102086.88;16134935;19;129155;-46
2022/08/11 09:11:52;;;;;;;1.65;0.80;;;;;;;23.50;37.00;102089.44;16133821;19;128955;-52
2022/08/11 09:17:14;;;;;;;8.27;1.80;;;;;;;23.52;37.52;102076.03;16135852;19;129471;-55
2022/08/11 09:28:43;;;;;;;6.28;1.45;;;;;;;23.73;37.97;102077.28;16149029;19;129024;-52
2022/08/11 09:34:05;;;;;;;13.43;1.58;;;;;;;23.77;37.79;102066.44;16144687;19;129240;-53
2022/08/11 09:45:12;;;;;;;11.90;2.03;;;;;;;23.72;37.45;102057.97;16149291;19;129436;-51
2022/08/11 09:50:38;;;;;;;3.78;1.10;;;;;;;23.71;37.41;102056.28;16147384;19;130856;-50
2022/08/11 09:58:12;;;;;;;4.28;1.40;;;;;;;23.70;37.75;102044.25;16142273;19;129518;-50
2022/08/11 10:01:47;;;;;;;4.13;1.40;;;;;;;23.73;37.58;102042.91;16142885;19;129119;-52
2022/08/11 10:07:13;;;;;;;2.85;1.10;;;;;;;23.74;37.70;102037.06;16147260;19;130276;-52
2022/08/11 10:12:40;;;;;;;5.55;1.58;;;;;;;23.75;37.39;102041.56;16143879;19;129394;-51
2022/08/11 10:35:24;;;;;;;1.88;1.00;;;;;;;23.81;37.19;102023.78;16139621;19;129729;-50
2022/08/11 10:43:01;;;;;;;2.28;0.98;;;;;;;23.83;36.99;102015.13;16141022;19;130126;-54
2022/08/11 11:03:34;;;;;;;2.35;0.93;;;;;;;23.91;37.29;102000.72;16140564;19;130036;-52
2022/08/11 11:09:11;;;;;;;2.53;1.02;;;;;;;23.95;37.05;101989.88;16141136;19;129615;-50
2022/08/11 11:20:26;;;;;;;2.80;1.05;;;;;;;23.93;37.27;101987.34;16134823;19;129256;-52
2022/08/11 11:26:37;;;;;;;3.25;1.10;;;;;;;23.94;36.80;101972.25;16140296;19;129530;-51
2022/08/11 11:32:10;;;;;;;3.58;0.98;;;;;;;23.92;37.13;101968.88;16136859;19;130744;-50
2022/08/11 11:37:36;;;;;;;3.20;0.90;;;;;;;23.92;36.93;101963.28;16139854;19;130555;-49
2022/08/11 11:42:58;;;;;;;;;;;;;;;23.89;36.82;101969.38;16135028;19;129306;-52
2022/08/11 11:48:20;;;;;;;3.67;0.90;;;;;;;23.90;36.67;101965.47;16139146;19;129926;-51
2022/08/11 11:53:44;;;;;;;1.20;0.75;;;;;;;23.90;37.03;101954.31;16134218;19;129478;-54
2022/08/11 12:04:47;;;;;;;2.45;0.77;;;;;;;23.91;37.12;101953.19;16138078;19;129234;-52
2022/08/11 12:10:09;;;;;;;2.83;0.70;;;;;;;23.91;37.02;101944.00;16138415;19;130110;-53
2022/08/11 12:15:32;;;;;;;1.15;0.80;;;;;;;23.91;36.89;101933.63;16133319;19;129045;-52
2022/08/11 12:21:15;;;;;;;1.17;0.80;;;;;;;23.93;36.80;101936.19;16135136;19;129467;-52
2022/08/11 12:32:39;;;;;;;2.33;0.93;;;;;;;23.95;36.87;101920.84;16135616;19;129463;-49
2022/08/11 12:38:02;;;;;;;0.90;0.77;;;;;;;23.96;36.86;101918.88;16134403;19;129398;-50
2022/08/11 12:55:12;;;;;;;3.65;0.90;;;;;;;23.96;36.66;101897.38;16141126;19;129146;-52
2022/08/11 13:06:15;;;;;;;2.58;0.90;;;;;;;23.96;37.02;101893.72;16151242;19;129149;-49
2022/08/11 13:17:23;;;;;;;3.08;0.80;;;;;;;23.96;36.35;101882.56;16145971;19;129839;-52
2022/08/11 13:23:05;;;;;;;2.63;0.80;;;;;;;23.97;36.19;101873.06;16150363;19;131340;-57
2022/08/11 13:28:27;;;;;;;1.10;0.70;;;;;;;23.97;36.53;101871.13;16149197;19;130250;-51
2022/08/11 13:33:50;;;;;;;1.00;0.80;;;;;;;23.98;36.34;101866.38;16143402;19;130454;-49
2022/08/11 13:39:13;;;;;;;0.85;0.73;;;;;;;23.98;36.21;101866.38;16147666;19;129645;-51
2022/08/11 13:44:37;;;;;;;2.33;0.65;;;;;;;23.97;36.26;101864.69;16145554;19;132070;-50
2022/08/11 13:50:00;;;;;;;2.13;0.68;;;;;;;23.96;36.25;101858.25;16149439;19;129578;-50
2022/08/11 13:55:22;;;;;;;2.17;0.73;;;;;;;23.99;36.19;101844.88;16144260;19;129496;-51
2022/08/11 14:01:06;;;;;;;1.02;0.80;;;;;;;24.02;36.02;101855.50;16148700;19;129368;-52
2022/08/11 14:06:52;;;;;;;1.85;0.75;;;;;;;24.04;36.09;101854.16;16145730;19;130702;-54
2022/08/11 14:18:06;;;;;;;1.10;0.70;;;;;;;24.09;36.17;101839.41;16146448;19;129605;-53
2022/08/11 14:23:39;;;;;;;3.30;0.80;;;;;;;24.12;36.06;101838.88;16144763;19;129046;-52
2022/08/11 14:29:09;;;;;;;0.77;0.60;;;;;;;24.15;36.21;101834.72;16142105;19;128888;-53
2022/08/11 14:34:33;;;;;;;1.92;0.65;;;;;;;24.15;35.78;101821.56;16143238;19;129929;-49
2022/08/11 14:40:00;;;;;;;6.40;0.82;;;;;;;24.15;35.98;101821.56;16146250;19;128893;-50
2022/08/11 14:51:20;;;;;;;1.08;0.60;;;;;;;24.15;36.19;101818.78;16144764;19;129338;-49
2022/08/11 14:56:44;;;;;;;1.13;0.75;;;;;;;24.15;36.05;101815.97;16139910;19;129415;-52
2022/08/11 15:07:48;;;;;;;1.25;0.70;;;;;;;24.14;36.08;101797.50;16144178;19;129633;-51
2022/08/11 15:13:11;;;;;;;0.95;0.70;;;;;;;24.15;35.94;101799.19;16137234;19;129398;-48
2022/08/11 15:18:34;;;;;;;1.92;0.60;;;;;;;24.15;35.79;101804.78;16136385;19;129167;-50
2022/08/11 15:46:49;;;;;;;1.75;0.98;;;;;;;24.16;35.20;101795.31;16139717;19;129324;-51
2022/08/11 15:52:20;;;;;;;4.50;1.23;;;;;;;24.20;35.37;101790.88;16136024;19;129302;-46
2022/08/11 16:09:34;;;;;;;6.32;1.95;;;;;;;24.38;34.68;101774.84;16137217;19;129048;-45
2022/08/11 16:20:54;;;;;;;6.72;2.05;;;;;;;24.38;34.64;101769.25;16131817;19;128870;-46
2022/08/11 16:26:23;;;;;;;6.20;1.70;;;;;;;24.39;35.06;101762.56;16133133;19;129979;-46
2022/08/11 16:32:19;;;;;;;4.63;1.50;;;;;;;24.41;35.09;101751.94;16150284;19;129327;-53
2022/08/11 16:49:16;;;;;;;2.20;1.40;;;;;;;24.44;34.61;101757.03;16147596;19;130361;-53
2022/08/11 16:54:40;;;;;;;4.88;1.90;;;;;;;24.46;34.90;101748.34;16146204;19;129794;-48
2022/08/11 17:00:11;;;;;;;10.35;1.40;;;;;;;24.49;34.91;101753.41;16143631;19;129530;-51
2022/08/11 17:17:26;;;;;;;4.18;1.10;;;;;;;24.53;35.11;101749.81;16138998;19;131174;-50
2022/08/11 17:28:35;;;;;;;4.28;1.10;;;;;;;24.54;35.28;101754.31;16147522;19;129944;-51
2022/08/11 17:39:40;;;;;;;8.20;1.42;;;;;;;24.57;35.22;101750.13;16145887;19;130342;-52
2022/08/11 17:50:47;;;;;;;5.78;0.95;;;;;;;24.57;35.26;101745.38;16139506;19;128927;-52
2022/08/11 18:01:51;;;;;;;2.53;1.20;;;;;;;24.57;35.54;101744.53;16147794;19;129830;-51
